INFORMACIÓN METAR y TAF
METAR FOR LYTV
ADDS - METARS form results

(0518 UTC 22 August 2019)
Data provider http://aviationweather.gov/metar/data/
 
METAR text: LYTV 220500Z VRB03KT CAVOK 29/09 Q1016 NOSIG
Conditions at: LYTV (TIVAT , CS) observed 0500 UTC 22 August 2019
Temperature: 29.0°C (84°F)
Dewpoint: 9.0°C (48°F) [RH = 29%]
Pressure (altimeter): 30.00 inches Hg (1016.0 mb)
Winds: variable direction winds at 3 MPH (3 knots; 1.5 m/s)
Visibility: 6 or more miles (10+ km)
Ceiling: ceiling and visibility are OK
Clouds: unknown
Weather: no significant weather observed at this time

METAR text: LYTV 220430Z 13003KT 020V170 CAVOK 30/08 Q1016 NOSIG
Conditions at: LYTV (TIVAT , CS) observed 0430 UTC 22 August 2019
Temperature: 30.0°C (86°F)
Dewpoint: 8.0°C (46°F) [RH = 25%]
Pressure (altimeter): 30.00 inches Hg (1016.0 mb)
Winds: from the SE (130 degrees) at 3 MPH (3 knots; 1.5 m/s)
Visibility: 6 or more miles (10+ km)
Ceiling: ceiling and visibility are OK
Clouds: unknown
Weather: no significant weather observed at this time

Forecast for: LYTV (TIVAT , CS)
Text: TAF LYTV 212300Z 2200/2224 34005KT CAVOK TX34/2214Z TN18/2203Z
Forecast period: 0000 UTC 22 August 2019 to 0000 UTC 23 August 2019
Forecast type: FROM: standard forecast or significant change
Winds: from the NNW (340 degrees) at 6 MPH (5 knots; 2.6 m/s)
Visibility: 6 or more miles 10+ km)
Ceiling: unknown
Clouds: missing
Weather: no significant weather forecast for this period

 MAPA DE AEROPUERTO

 INFORMACIÓN DE PISTA
Pista 14 Longitud 8208 ft Ancho 148 ft
Elevación 7 ft Umbral desplazado 0 ft Rumbo de pista 139
Pista 32 Longitud 8208 ft Ancho 148 ft
Elevación 16 ft Umbral desplazado 0 ft Rumbo de pista 319

 FRECUANCIAS DEL AEROPUERTO
Tipo ARR Nombre APP Frecuencia 118 MHZ
Tipo TWR Nombre TWR Frecuencia 118 MHZ

 RADIO AYUDAS DEL AEROPUERTO
Tipo NDB Nombre Tivat Frecuencia 345 KHZ



              


PayPal

©2019 Oasis Virtual Airlines
Simulando desde el 2013

Oasis Líneas Aéreas Virtuales no está relacionada con ninguna compañía real.
Se trata de un entorno virtual de simulación aérea, sin ánimo de lucro.


Visitas: 43.078

VAM v2.6.2 [MOD.]